createdAt,value
2023-01-09T00:00:40.231Z,22.70
2023-01-09T00:03:22.902Z,24.45
2023-01-09T00:05:50.301Z,24.42
2023-01-09T00:08:18.439Z,25.27
2023-01-09T00:10:46.001Z,22.85
2023-01-09T00:13:13.774Z,24.38
2023-01-09T00:15:41.950Z,24.73
2023-01-09T00:18:09.144Z,23.73
2023-01-09T00:20:37.033Z,23.35
2023-01-09T00:23:04.216Z,22.17
2023-01-09T00:25:31.808Z,25.52
2023-01-09T00:27:58.920Z,23.98
2023-01-09T00:30:26.369Z,21.98
2023-01-09T00:32:55.178Z,23.40
2023-01-09T00:35:24.707Z,24.63
2023-01-09T00:37:51.981Z,23.80
2023-01-09T00:40:19.922Z,22.85
2023-01-09T00:42:51.534Z,24.25
2023-01-09T00:45:28.693Z,24.17
2023-01-09T00:50:30.871Z,20.60
2023-01-09T00:53:03.484Z,23.02
2023-01-09T00:55:31.183Z,24.13
2023-01-09T00:57:58.310Z,22.25
2023-01-09T01:00:25.650Z,22.60
2023-01-09T01:02:52.780Z,22.23
2023-01-09T01:05:38.683Z,24.73
2023-01-09T01:08:13.532Z,25.35
2023-01-09T01:10:41.287Z,23.33
2023-01-09T01:13:08.644Z,23.20
2023-01-09T01:15:39.294Z,24.63
2023-01-09T01:18:06.850Z,23.08
2023-01-09T01:20:34.299Z,23.75
2023-01-09T01:23:01.533Z,23.77
2023-01-09T01:25:28.870Z,23.55
2023-01-09T01:27:55.993Z,24.05
2023-01-09T01:30:23.351Z,23.60
2023-01-09T01:32:50.558Z,23.85
2023-01-09T01:35:17.933Z,22.13
2023-01-09T01:37:45.004Z,24.08
2023-01-09T01:40:12.775Z,22.52
2023-01-09T01:42:50.171Z,22.95
2023-01-09T01:45:20.562Z,24.23
2023-01-09T01:48:02.418Z,22.13
2023-01-09T01:50:38.163Z,24.02
2023-01-09T01:53:14.239Z,25.40
2023-01-09T01:55:47.079Z,22.88
2023-01-09T01:58:15.485Z,22.65
2023-01-09T02:00:45.656Z,25.63
2023-01-09T02:03:17.338Z,25.27
2023-01-09T02:05:45.271Z,25.55
2023-01-09T02:08:12.727Z,24.27
2023-01-09T02:10:41.095Z,23.08
2023-01-09T02:13:09.863Z,23.92
2023-01-09T02:15:47.987Z,25.33
2023-01-09T02:18:46.735Z,22.65
2023-01-09T02:21:50.459Z,24.23
2023-01-09T02:24:27.034Z,23.23
2023-01-09T02:27:20.389Z,25.33
2023-01-09T02:30:05.665Z,23.50
2023-01-09T02:32:51.764Z,23.80
2023-01-09T02:35:28.175Z,23.02
2023-01-09T02:38:06.734Z,23.52
2023-01-09T02:40:42.935Z,23.92
2023-01-09T02:43:11.677Z,23.38
2023-01-09T02:45:38.842Z,23.08
2023-01-09T02:48:06.479Z,24.40
2023-01-09T02:50:59.018Z,22.50
2023-01-09T02:53:58.644Z,23.25
2023-01-09T02:56:42.307Z,24.00
2023-01-09T02:59:15.422Z,22.65
2023-01-09T03:02:08.030Z,23.05
2023-01-09T03:04:51.681Z,23.98
2023-01-09T03:07:36.665Z,25.45
2023-01-09T03:10:19.037Z,23.95
2023-01-09T03:12:48.623Z,21.77
2023-01-09T03:15:19.043Z,23.85
2023-01-09T03:17:49.452Z,23.65
2023-01-09T03:20:22.234Z,23.15
2023-01-09T03:22:58.121Z,23.42
2023-01-09T03:25:27.214Z,24.13
2023-01-09T03:28:04.320Z,22.90
2023-01-09T03:30:33.556Z,22.50
2023-01-09T03:33:01.004Z,23.00
2023-01-09T03:35:28.783Z,22.58
2023-01-09T03:37:55.817Z,22.75
2023-01-09T03:40:23.330Z,23.55
2023-01-09T03:42:50.331Z,22.95
2023-01-09T03:45:17.721Z,22.65
2023-01-09T03:47:44.887Z,24.13
2023-01-09T03:50:12.338Z,23.77
2023-01-09T03:52:39.503Z,24.33
2023-01-09T03:55:07.286Z,25.38
2023-01-09T03:57:34.431Z,21.98
2023-01-09T04:00:01.883Z,25.02
2023-01-09T04:02:39.482Z,24.85
2023-01-09T04:05:07.801Z,23.83
2023-01-09T04:07:34.974Z,23.33
2023-01-09T04:10:02.669Z,23.10
2023-01-09T04:12:29.734Z,24.50
2023-01-09T04:14:57.182Z,22.77
2023-01-09T04:17:24.222Z,24.30
2023-01-09T04:19:51.648Z,23.20
2023-01-09T04:22:18.723Z,24.00
2023-01-09T04:24:46.031Z,22.35
2023-01-09T04:27:13.151Z,24.15
2023-01-09T04:29:40.537Z,23.92
2023-01-09T04:32:07.598Z,25.88
2023-01-09T04:34:34.903Z,25.75
2023-01-09T04:37:02.024Z,23.30
2023-01-09T04:39:29.348Z,23.13
2023-01-09T04:41:56.503Z,23.35
2023-01-09T04:44:28.294Z,24.70
2023-01-09T04:46:57.087Z,24.73
2023-01-09T04:49:24.647Z,22.77
2023-01-09T04:51:51.809Z,24.63
2023-01-09T04:54:19.893Z,23.70
2023-01-09T04:56:47.024Z,22.90
2023-01-09T04:59:14.664Z,22.42
2023-01-09T05:01:42.086Z,22.08
2023-01-09T05:04:09.760Z,23.05
2023-01-09T05:06:37.279Z,24.35
2023-01-09T05:09:04.698Z,23.52
2023-01-09T05:11:31.709Z,23.88
2023-01-09T05:13:59.135Z,23.58
2023-01-09T05:16:26.335Z,23.83
2023-01-09T05:18:56.678Z,23.17
2023-01-09T05:21:27.375Z,25.13
2023-01-09T05:23:54.792Z,24.33
2023-01-09T05:26:25.610Z,23.70
2023-01-09T05:28:53.817Z,23.80
2023-01-09T05:31:21.231Z,24.70
2023-01-09T05:33:48.987Z,26.77
2023-01-09T05:36:16.330Z,24.20
2023-01-09T05:38:43.745Z,23.75
2023-01-09T05:41:10.946Z,24.35
2023-01-09T05:43:38.282Z,23.88
2023-01-09T05:46:05.620Z,21.77
2023-01-09T05:48:33.072Z,22.98
2023-01-09T05:51:00.138Z,24.48
2023-01-09T05:53:27.446Z,23.92
2023-01-09T05:55:54.547Z,23.42
2023-01-09T05:58:21.973Z,23.70
2023-01-09T06:00:49.528Z,22.63
2023-01-09T06:03:17.089Z,23.42
2023-01-09T06:05:44.546Z,22.10
2023-01-09T06:08:11.968Z,23.25
2023-01-09T06:10:39.045Z,24.10
2023-01-09T06:13:06.359Z,20.83
2023-01-09T06:15:33.559Z,22.65
2023-01-09T06:18:00.884Z,23.52
2023-01-09T06:20:28.031Z,23.70
2023-01-09T06:22:55.319Z,26.10
2023-01-09T06:25:22.595Z,22.35
2023-01-09T06:27:52.231Z,21.77
2023-01-09T06:30:20.001Z,22.45
2023-01-09T06:32:50.254Z,23.90
2023-01-09T06:35:22.319Z,24.90
2023-01-09T06:37:50.283Z,23.15
2023-01-09T06:40:18.369Z,23.65
2023-01-09T06:42:46.900Z,23.25
2023-01-09T06:45:14.469Z,24.27
2023-01-09T06:47:42.343Z,22.30
2023-01-09T06:50:10.274Z,20.95
2023-01-09T06:52:38.081Z,21.58
2023-01-09T06:55:05.882Z,23.05
2023-01-09T06:57:33.166Z,23.13
2023-01-09T07:00:00.372Z,21.65
2023-01-09T07:02:27.815Z,21.08
2023-01-09T07:04:55.033Z,21.67
2023-01-09T07:07:22.655Z,21.92
2023-01-09T07:09:50.126Z,21.63
2023-01-09T07:12:17.699Z,21.17
2023-01-09T07:14:44.809Z,22.52
2023-01-09T07:17:15.016Z,23.45
2023-01-09T07:19:42.655Z,20.70
2023-01-09T07:22:10.886Z,21.52
2023-01-09T07:24:37.958Z,21.65
2023-01-09T07:27:05.450Z,20.83
2023-01-09T07:29:32.611Z,20.40
2023-01-09T07:31:59.983Z,22.83
2023-01-09T07:34:27.061Z,21.75
2023-01-09T07:36:54.741Z,21.35
2023-01-09T07:39:21.884Z,20.17
2023-01-09T07:41:49.454Z,20.77
2023-01-09T07:44:16.725Z,21.58
2023-01-09T07:46:44.245Z,20.48
2023-01-09T07:49:11.262Z,21.48
2023-01-09T07:51:42.958Z,18.67
2023-01-09T07:54:11.581Z,19.98
2023-01-09T07:56:40.385Z,18.73
2023-01-09T07:59:07.469Z,19.40
2023-01-09T08:01:34.890Z,17.77
2023-01-09T08:04:02.187Z,19.55
2023-01-09T08:06:30.068Z,20.30
2023-01-09T08:08:58.389Z,19.95
2023-01-09T08:11:25.882Z,16.95
2023-01-09T08:13:53.364Z,18.83
2023-01-09T08:16:20.475Z,22.52
2023-01-09T08:18:50.714Z,18.73
2023-01-09T08:21:17.787Z,17.98
2023-01-09T08:23:45.656Z,18.88
2023-01-09T08:26:13.013Z,18.35
2023-01-09T08:28:40.389Z,17.98
2023-01-09T08:31:07.594Z,18.65
2023-01-09T08:33:34.976Z,19.42
2023-01-09T08:36:02.219Z,19.55
2023-01-09T08:38:29.602Z,17.92
2023-01-09T08:40:56.693Z,19.80
2023-01-09T08:43:42.890Z,18.08
2023-01-09T08:46:38.211Z,18.00
2023-01-09T08:49:05.590Z,17.38
2023-01-09T08:51:32.779Z,19.33
2023-01-09T08:54:00.180Z,19.10
2023-01-09T08:56:27.377Z,17.85
2023-01-09T08:58:54.754Z,18.45
2023-01-09T09:01:21.892Z,18.67
2023-01-09T09:03:49.316Z,19.50
2023-01-09T09:06:16.385Z,18.55
2023-01-09T09:08:45.851Z,18.35
2023-01-09T09:11:12.925Z,18.25
2023-01-09T09:13:40.372Z,18.92
2023-01-09T09:16:07.585Z,19.17
2023-01-09T09:18:34.886Z,17.88
2023-01-09T09:21:01.934Z,17.08
2023-01-09T09:23:29.332Z,17.50
2023-01-09T09:25:56.656Z,17.77
2023-01-09T09:28:24.025Z,16.38
2023-01-09T09:30:51.196Z,16.48
2023-01-09T09:33:18.591Z,16.30
2023-01-09T09:35:45.930Z,16.80
2023-01-09T09:38:13.450Z,16.77
2023-01-09T09:41:04.752Z,16.02
2023-01-09T09:44:25.181Z,16.15
2023-01-09T09:47:25.628Z,16.52
2023-01-09T09:50:05.240Z,14.75
2023-01-09T09:52:45.605Z,17.13
2023-01-09T09:55:27.326Z,16.83
2023-01-09T09:57:56.441Z,20.85
2023-01-09T10:00:24.047Z,17.42
2023-01-09T10:03:04.904Z,17.08
2023-01-09T10:05:36.950Z,16.95
2023-01-09T10:08:32.277Z,16.85
2023-01-09T10:11:00.922Z,16.75
2023-01-09T10:13:46.445Z,17.58
2023-01-09T10:16:25.519Z,16.42
2023-01-09T10:19:01.337Z,18.40
2023-01-09T10:21:57.610Z,18.58
2023-01-09T10:24:37.573Z,16.42
2023-01-09T10:27:21.196Z,18.17
2023-01-09T10:30:01.609Z,21.20
2023-01-09T10:32:53.427Z,18.00
2023-01-09T10:36:11.686Z,18.30
2023-01-09T10:38:43.248Z,17.42
2023-01-09T10:41:25.441Z,17.65
2023-01-09T10:44:15.257Z,18.20
2023-01-09T10:46:49.350Z,17.27
2023-01-09T10:49:18.551Z,17.35
2023-01-09T10:52:20.549Z,17.63
2023-01-09T10:55:01.701Z,16.60
2023-01-09T10:57:42.105Z,17.42
2023-01-09T11:00:23.355Z,17.08
2023-01-09T11:02:52.594Z,17.55
2023-01-09T11:05:23.325Z,17.50
2023-01-09T11:08:12.060Z,18.00
2023-01-09T11:10:49.613Z,18.30
2023-01-09T11:13:19.534Z,18.35
2023-01-09T11:15:58.824Z,17.20
2023-01-09T11:18:26.219Z,18.50
2023-01-09T11:20:53.759Z,19.83
2023-01-09T11:23:29.549Z,19.60
2023-01-09T11:26:02.644Z,18.57
2023-01-09T11:28:30.288Z,18.00
2023-01-09T11:31:02.371Z,19.27
2023-01-09T11:33:38.321Z,17.67
2023-01-09T11:36:13.546Z,16.13
2023-01-09T11:38:55.993Z,18.85
2023-01-09T11:41:27.049Z,17.67
2023-01-09T11:43:57.262Z,17.88
2023-01-09T11:46:33.561Z,19.48
2023-01-09T11:49:02.519Z,15.37
2023-01-09T11:51:33.031Z,19.33
2023-01-09T11:54:12.792Z,19.23
2023-01-09T11:56:40.654Z,18.63
2023-01-09T11:59:12.678Z,19.33
2023-01-09T12:01:49.079Z,19.27
2023-01-09T12:04:32.184Z,18.80
2023-01-09T12:07:23.456Z,17.98
2023-01-09T12:09:54.965Z,19.13
2023-01-09T12:13:05.696Z,17.38
2023-01-09T12:15:43.844Z,19.65
2023-01-09T12:18:24.051Z,18.23
2023-01-09T12:21:22.523Z,17.13
2023-01-09T12:24:04.801Z,17.27
2023-01-09T12:26:45.232Z,19.48
2023-01-09T12:29:27.087Z,18.17
2023-01-09T12:32:18.787Z,17.58
2023-01-09T12:35:08.265Z,18.55
2023-01-09T12:37:50.229Z,19.05
2023-01-09T12:40:33.967Z,18.63
2023-01-09T12:43:24.148Z,19.58
2023-01-09T12:45:57.356Z,20.17
2023-01-09T12:48:59.730Z,18.52
2023-01-09T12:51:49.483Z,18.20
2023-01-09T12:54:26.517Z,19.00
2023-01-09T12:57:31.673Z,18.98
2023-01-09T13:00:05.095Z,17.98
2023-01-09T13:03:11.206Z,18.40
2023-01-09T13:05:53.598Z,18.00
2023-01-09T13:08:42.465Z,18.95
2023-01-09T13:11:24.638Z,19.08
2023-01-09T13:13:57.305Z,17.98
2023-01-09T13:16:30.601Z,18.13
2023-01-09T13:19:13.171Z,18.75
2023-01-09T13:21:41.228Z,16.90
2023-01-09T13:24:16.642Z,18.30
2023-01-09T13:26:58.007Z,19.98
2023-01-09T13:29:29.875Z,18.00
2023-01-09T13:32:17.905Z,19.88
2023-01-09T13:34:52.617Z,18.15
2023-01-09T13:37:26.990Z,19.17
2023-01-09T13:40:19.099Z,19.08
2023-01-09T13:43:05.274Z,18.85
2023-01-09T13:45:35.718Z,18.13
2023-01-09T13:48:09.736Z,20.15
2023-01-09T13:50:38.885Z,18.35
2023-01-09T13:53:17.917Z,19.95
2023-01-09T13:56:06.731Z,17.63
2023-01-09T13:58:43.319Z,19.00
2023-01-09T14:04:14.658Z,20.35
2023-01-09T14:06:44.988Z,19.42
2023-01-09T14:09:23.050Z,19.50
2023-01-09T14:12:03.306Z,19.33
2023-01-09T14:14:33.277Z,19.63
2023-01-09T14:17:03.467Z,20.30
2023-01-09T14:19:39.360Z,18.95
2023-01-09T14:22:08.256Z,19.00
2023-01-09T14:24:47.154Z,18.38
2023-01-09T14:27:52.265Z,20.00
2023-01-09T14:30:34.894Z,19.80
2023-01-09T14:33:17.665Z,19.75
2023-01-09T14:36:11.365Z,19.38
2023-01-09T14:38:52.002Z,20.58
2023-01-09T14:41:56.721Z,21.23
2023-01-09T14:44:50.816Z,19.17
2023-01-09T14:47:30.831Z,19.52
2023-01-09T14:50:07.385Z,18.88
2023-01-09T14:52:48.217Z,18.55
2023-01-09T14:55:29.975Z,20.20
2023-01-09T14:58:33.190Z,18.08
2023-01-09T15:01:02.013Z,19.50
2023-01-09T15:03:44.638Z,20.63
2023-01-09T15:06:26.654Z,20.73
2023-01-09T15:09:07.122Z,21.52
2023-01-09T15:11:39.487Z,21.42
2023-01-09T15:14:08.836Z,20.30
2023-01-09T15:16:36.693Z,19.77
2023-01-09T15:19:07.627Z,20.73
2023-01-09T15:21:35.031Z,20.88
2023-01-09T15:24:27.140Z,21.58
2023-01-09T15:26:58.369Z,20.17
2023-01-09T15:29:26.756Z,21.10
2023-01-09T15:32:01.918Z,20.73
2023-01-09T15:34:29.499Z,20.27
2023-01-09T15:36:56.889Z,22.65
2023-01-09T15:39:31.490Z,21.88
2023-01-09T15:42:18.924Z,22.15
2023-01-09T15:44:48.941Z,21.45
2023-01-09T15:47:20.566Z,24.42
2023-01-09T15:49:47.733Z,25.38
2023-01-09T15:52:16.949Z,23.77
2023-01-09T15:54:46.994Z,23.02
2023-01-09T15:57:32.931Z,23.08
2023-01-09T16:00:29.201Z,22.02
2023-01-09T16:03:11.896Z,24.02
2023-01-09T16:05:45.093Z,23.25
2023-01-09T16:08:22.421Z,22.15
2023-01-09T16:13:18.136Z,23.92
2023-01-09T16:15:46.128Z,23.60
2023-01-09T16:18:16.359Z,24.13
2023-01-09T16:20:45.168Z,26.83
2023-01-09T16:23:29.103Z,29.67
2023-01-09T16:26:09.708Z,26.35
2023-01-09T16:28:40.836Z,30.20
2023-01-09T16:31:20.315Z,27.95
2023-01-09T16:33:52.213Z,26.90
2023-01-09T16:36:21.211Z,30.27
2023-01-09T16:38:48.586Z,30.13
2023-01-09T16:41:38.997Z,31.50
2023-01-09T16:44:11.945Z,28.50
2023-01-09T16:46:43.646Z,28.00
2023-01-09T16:49:23.579Z,28.48
2023-01-09T16:51:51.900Z,30.45
2023-01-09T16:54:20.281Z,26.35
2023-01-09T16:56:54.172Z,25.52
2023-01-09T16:59:26.480Z,28.73
2023-01-09T17:01:54.533Z,31.67
2023-01-09T17:04:23.811Z,28.20
2023-01-09T17:06:51.856Z,27.73
2023-01-09T17:09:23.167Z,29.67
2023-01-09T17:11:53.808Z,27.67
2023-01-09T17:14:21.192Z,30.38
2023-01-09T17:16:48.453Z,30.95
2023-01-09T17:19:21.481Z,29.70
2023-01-09T17:21:48.570Z,30.50
2023-01-09T17:24:34.874Z,30.50
2023-01-09T17:27:21.398Z,30.88
2023-01-09T17:29:48.859Z,30.67
2023-01-09T17:32:17.854Z,30.20
2023-01-09T17:34:45.339Z,34.30
2023-01-09T17:37:17.458Z,32.00
2023-01-09T17:39:46.005Z,31.58
2023-01-09T17:42:13.237Z,29.63
2023-01-09T17:44:41.000Z,31.13
2023-01-09T17:47:15.034Z,33.78
2023-01-09T17:49:42.647Z,34.15
2023-01-09T17:52:09.899Z,31.40
2023-01-09T17:54:37.364Z,33.78
2023-01-09T17:57:04.651Z,32.08
2023-01-09T17:59:32.166Z,32.63
2023-01-09T18:01:59.432Z,34.92
2023-01-09T18:04:26.847Z,30.63
2023-01-09T18:06:54.650Z,33.40
2023-01-09T18:09:22.048Z,30.90
2023-01-09T18:11:49.081Z,31.88
2023-01-09T18:14:17.570Z,32.10
2023-01-09T18:16:45.400Z,33.55
2023-01-09T18:19:12.928Z,31.85
2023-01-09T18:21:40.080Z,32.72
2023-01-09T18:24:08.475Z,31.58
2023-01-09T18:26:35.560Z,32.72
2023-01-09T18:29:03.599Z,32.72
2023-01-09T18:31:31.078Z,33.97
2023-01-09T18:34:02.381Z,33.53
2023-01-09T18:36:30.415Z,32.85
2023-01-09T18:39:00.541Z,32.95
2023-01-09T18:41:28.861Z,33.17
2023-01-09T18:43:58.381Z,32.63
2023-01-09T18:46:26.387Z,30.63
2023-01-09T18:48:58.950Z,32.03
2023-01-09T18:51:27.287Z,30.35
2023-01-09T18:53:55.233Z,30.52
2023-01-09T18:56:24.746Z,29.73
2023-01-09T18:58:59.996Z,29.88
2023-01-09T19:01:28.665Z,28.88
2023-01-09T19:03:57.529Z,28.27
2023-01-09T19:06:24.824Z,30.42
2023-01-09T19:08:52.441Z,29.60
2023-01-09T19:11:19.682Z,28.33
2023-01-09T19:13:47.621Z,31.13
2023-01-09T19:16:14.702Z,30.35
2023-01-09T19:18:43.083Z,30.88
2023-01-09T19:21:19.455Z,29.48
2023-01-09T19:23:48.615Z,31.45
2023-01-09T19:26:27.026Z,32.95
2023-01-09T19:28:57.202Z,30.75
2023-01-09T19:31:25.891Z,32.17
2023-01-09T19:33:53.831Z,31.40
2023-01-09T19:36:22.433Z,30.45
2023-01-09T19:38:55.003Z,33.42
2023-01-09T19:41:22.090Z,30.95
2023-01-09T19:43:49.440Z,30.70
2023-01-09T19:46:19.854Z,27.95
2023-01-09T19:48:48.511Z,28.45
2023-01-09T19:51:17.020Z,28.00
2023-01-09T19:53:44.972Z,28.15
2023-01-09T19:56:17.782Z,28.80
2023-01-09T19:58:56.082Z,28.25
2023-01-09T20:01:26.109Z,27.80
2023-01-09T20:03:54.844Z,27.38
2023-01-09T20:06:24.758Z,26.85
2023-01-09T20:08:57.309Z,30.20
2023-01-09T20:11:26.845Z,29.05
2023-01-09T20:13:55.636Z,28.98
2023-01-09T20:16:30.452Z,29.45
2023-01-09T20:19:00.403Z,28.10
2023-01-09T20:21:28.917Z,31.10
2023-01-09T20:23:59.172Z,30.40
2023-01-09T20:26:27.418Z,30.60
2023-01-09T20:28:55.342Z,32.90
2023-01-09T20:31:25.061Z,31.75
2023-01-09T20:33:52.608Z,31.08
2023-01-09T20:36:27.261Z,29.25
2023-01-09T20:38:55.464Z,34.28
2023-01-09T20:41:22.797Z,30.98
2023-01-09T20:43:51.618Z,31.42
2023-01-09T20:46:20.180Z,36.28
2023-01-09T20:48:47.953Z,30.75
2023-01-09T20:51:15.027Z,29.55
2023-01-09T20:53:55.946Z,28.52
2023-01-09T20:56:24.791Z,27.95
2023-01-09T20:58:52.787Z,29.13
2023-01-09T21:01:20.788Z,29.63
2023-01-09T21:03:49.904Z,29.35
2023-01-09T21:06:18.470Z,30.75
2023-01-09T21:08:47.220Z,30.17
2023-01-09T21:11:15.518Z,29.05
2023-01-09T21:13:43.193Z,29.80
2023-01-09T21:16:13.148Z,30.67
2023-01-09T21:18:41.596Z,30.48
2023-01-09T21:21:13.272Z,30.80
2023-01-09T21:23:48.305Z,27.60
2023-01-09T21:26:16.959Z,28.90
2023-01-09T21:28:48.948Z,27.73
2023-01-09T21:31:21.583Z,28.80
2023-01-09T21:33:49.363Z,27.15
2023-01-09T21:36:17.279Z,27.88
2023-01-09T21:38:45.845Z,28.75
2023-01-09T21:41:32.992Z,27.88
2023-01-09T21:46:52.219Z,25.77
2023-01-09T21:49:23.151Z,29.05
2023-01-09T21:51:50.284Z,27.33
2023-01-09T21:54:17.680Z,36.05
2023-01-09T21:56:44.808Z,34.53
2023-01-09T21:59:12.332Z,29.55
2023-01-09T22:01:39.486Z,32.58
2023-01-09T22:04:07.001Z,28.83
2023-01-09T22:06:35.481Z,27.80
2023-01-09T22:09:03.024Z,30.73
2023-01-09T22:11:30.180Z,31.20
2023-01-09T22:13:57.696Z,29.50
2023-01-09T22:16:27.169Z,28.75
2023-01-09T22:18:55.590Z,29.20
2023-01-09T22:21:23.705Z,29.70
2023-01-09T22:23:51.558Z,26.85
2023-01-09T22:26:19.529Z,31.40
2023-01-09T22:28:47.499Z,31.23
2023-01-09T22:31:18.893Z,33.40
2023-01-09T22:33:54.143Z,48.95
2023-01-09T22:36:21.665Z,38.85
2023-01-09T22:38:48.972Z,31.48
2023-01-09T22:41:16.068Z,29.90
2023-01-09T22:43:43.510Z,28.83
2023-01-09T22:46:11.838Z,30.65
2023-01-09T22:48:40.105Z,29.92
2023-01-09T22:51:12.603Z,30.75
2023-01-09T22:53:40.378Z,30.25
2023-01-09T22:56:14.075Z,31.80
2023-01-09T22:58:41.612Z,31.35
2023-01-09T23:01:12.186Z,42.75
2023-01-09T23:03:40.362Z,38.08
2023-01-09T23:06:13.910Z,35.70
2023-01-09T23:08:42.075Z,37.08
2023-01-09T23:11:12.002Z,39.20
2023-01-09T23:13:39.925Z,34.00
2023-01-09T23:16:07.603Z,34.47
2023-01-09T23:18:35.053Z,35.35
2023-01-09T23:21:04.668Z,35.13
2023-01-09T23:23:32.738Z,35.45
2023-01-09T23:26:04.888Z,38.80
2023-01-09T23:28:32.242Z,35.15
2023-01-09T23:30:59.330Z,34.25
2023-01-09T23:33:26.666Z,32.22
2023-01-09T23:35:53.793Z,32.42
2023-01-09T23:38:21.080Z,33.92
2023-01-09T23:40:48.200Z,36.67
2023-01-09T23:43:15.663Z,35.60
2023-01-09T23:45:44.891Z,33.35
2023-01-09T23:48:17.014Z,40.78
2023-01-09T23:50:51.379Z,36.47
2023-01-09T23:53:21.329Z,42.58
2023-01-09T23:55:49.677Z,40.30
2023-01-09T23:58:17.191Z,40.80
